Time;durP1;ratioP1;P1;durP2;ratioP2;P2;SDS_P1;SDS_P2;PMS_P1;PMS_P2;Temp;Humidity;BMP_temperature;BMP_pressure;BME280_temperature;BME280_humidity;BME280_pressure;Samples;Min_cycle;Max_cycle;Signal;HPM_P1;HPM_P2
2023/06/26 00:02:17;;;;;;;;;;;23.90;72.70;;;;;;5013281;28;20381;-35
2023/06/26 00:04:44;;;;;;;;;;;24.00;73.10;;;;;;5012411;28;20431;-35
2023/06/26 00:07:11;;;;;;;;;;;23.90;74.70;;;;;;5031100;28;19925;-35
2023/06/26 00:09:37;;;;;;;;;;;23.90;73.80;;;;;;5034235;28;19983;-35
2023/06/26 00:12:04;;;;;;;;;;;23.80;73.90;;;;;;5017379;28;19925;-35
2023/06/26 00:14:31;;;;;;;;;;;23.80;75.00;;;;;;5035063;28;19925;-34
2023/06/26 00:16:59;;;;;;;;;;;23.80;74.60;;;;;;5035122;28;19968;-35
2023/06/26 00:19:26;;;;;;;;;;;23.80;74.90;;;;;;5018270;28;19965;-34
2023/06/26 00:21:52;;;;;;;;;;;23.80;75.70;;;;;;5016450;28;19932;-34
2023/06/26 00:24:19;;;;;;;;;;;23.70;75.40;;;;;;5034060;28;20415;-32
2023/06/26 00:26:47;;;;;;;;;;;23.70;75.50;;;;;;5016904;28;20344;-35
2023/06/26 00:29:13;;;;;;;;;;;23.70;74.50;;;;;;5018057;28;20438;-35
2023/06/26 00:31:40;;;;;;;;;;;23.70;74.90;;;;;;5017259;28;19969;-34
2023/06/26 00:34:08;;;;;;;;;;;23.60;76.00;;;;;;5033566;28;19929;-44
2023/06/26 00:36:35;;;;;;;;;;;23.60;74.40;;;;;;5035412;28;20331;-45
2023/06/26 00:39:03;;;;;;;;;;;23.60;75.00;;;;;;5048684;28;19952;-44
2023/06/26 00:41:30;;;;;;;;;;;23.60;76.10;;;;;;5016930;28;19924;-43
2023/06/26 00:43:56;;;;;;;;;;;23.60;75.40;;;;;;5050796;28;19928;-43
2023/06/26 00:46:23;;;;;;;;;;;23.50;76.50;;;;;;5050801;28;19983;-44
2023/06/26 00:48:50;;;;;;;;;;;23.50;75.10;;;;;;5033660;28;19948;-44
2023/06/26 00:51:18;;;;;;;;;;;23.40;75.00;;;;;;5033675;28;19929;-43
2023/06/26 00:53:45;;;;;;;;;;;23.40;75.70;;;;;;5034429;28;19936;-44
2023/06/26 00:56:12;;;;;;;;;;;23.40;75.60;;;;;;5031669;28;19925;-44
2023/06/26 00:58:38;;;;;;;;;;;23.40;77.00;;;;;;5034689;28;20372;-44
2023/06/26 01:01:08;;;;;;;;;;;23.30;76.40;;;;;;5034918;28;19933;-43
2023/06/26 01:03:37;;;;;;;;;;;23.30;75.80;;;;;;5034113;28;19932;-44
2023/06/26 01:06:03;;;;;;;;;;;23.20;76.00;;;;;;5006056;28;19925;-44
2023/06/26 01:08:31;;;;;;;;;;;23.20;76.20;;;;;;5034479;28;19932;-43
2023/06/26 01:10:58;;;;;;;;;;;23.20;76.00;;;;;;5015398;28;19976;-44
2023/06/26 01:13:25;;;;;;;;;;;23.20;76.70;;;;;;5032413;28;19933;-44
2023/06/26 01:15:52;;;;;;;;;;;23.20;76.80;;;;;;5033143;28;19932;-45
2023/06/26 01:18:18;;;;;;;;;;;23.10;77.40;;;;;;5034036;28;19936;-43
2023/06/26 01:20:45;;;;;;;;;;;23.10;76.90;;;;;;5032075;28;19928;-44
2023/06/26 01:23:14;;;;;;;;;;;23.10;77.80;;;;;;5014029;28;19925;-44
2023/06/26 01:25:47;;;;;;;;;;;23.00;77.70;;;;;;5033585;28;19925;-43
2023/06/26 01:28:17;;;;;;;;;;;23.00;76.80;;;;;;5025857;28;19932;-44
2023/06/26 01:30:44;;;;;;;;;;;23.00;78.70;;;;;;5033482;28;19969;-43
2023/06/26 01:33:10;;;;;;;;;;;23.00;77.50;;;;;;5013057;28;19929;-43
2023/06/26 01:35:37;;;;;;;;;;;22.90;77.30;;;;;;5015282;28;19929;-44
2023/06/26 01:38:12;;;;;;;;;;;22.90;77.70;;;;;;5048675;28;19940;-43
2023/06/26 01:40:39;;;;;;;;;;;22.90;79.40;;;;;;5033270;28;20369;-44
2023/06/26 01:43:06;;;;;;;;;;;22.80;78.10;;;;;;5033444;28;20349;-42
2023/06/26 01:45:34;;;;;;;;;;;22.90;79.00;;;;;;5020974;28;19925;-44
2023/06/26 01:48:00;;;;;;;;;;;22.80;79.00;;;;;;5015088;28;20377;-45
2023/06/26 01:50:27;;;;;;;;;;;22.80;79.00;;;;;;5032941;28;19925;-44
2023/06/26 01:52:55;;;;;;;;;;;22.80;80.00;;;;;;5048280;28;19936;-43
2023/06/26 01:55:22;;;;;;;;;;;22.70;81.80;;;;;;5048318;28;19929;-44
2023/06/26 01:57:49;;;;;;;;;;;22.70;80.40;;;;;;5016224;28;19933;-44
2023/06/26 02:00:17;;;;;;;;;;;22.70;80.10;;;;;;5032028;28;19925;-43
2023/06/26 02:02:45;;;;;;;;;;;22.70;82.00;;;;;;5012527;28;19939;-43
2023/06/26 02:05:12;;;;;;;;;;;22.70;81.80;;;;;;5032715;28;19925;-44
2023/06/26 02:07:39;;;;;;;;;;;22.60;81.50;;;;;;5047158;28;19956;-44
2023/06/26 02:10:06;;;;;;;;;;;22.60;80.70;;;;;;5032307;28;20392;-42
2023/06/26 02:12:33;;;;;;;;;;;22.60;80.50;;;;;;5010531;28;19949;-43
2023/06/26 02:15:00;;;;;;;;;;;22.60;81.40;;;;;;5048794;28;20332;-44
2023/06/26 02:17:26;;;;;;;;;;;22.50;81.00;;;;;;5032868;28;19925;-44
2023/06/26 02:19:54;;;;;;;;;;;22.50;81.60;;;;;;5014121;28;19999;-43
2023/06/26 02:22:21;;;;;;;;;;;22.50;79.60;;;;;;5014102;28;19925;-43
2023/06/26 02:24:48;;;;;;;;;;;22.50;79.50;;;;;;5032627;28;20457;-45
2023/06/26 02:27:15;;;;;;;;;;;22.50;79.30;;;;;;5049022;28;19925;-45
2023/06/26 02:29:41;;;;;;;;;;;22.50;80.00;;;;;;5032599;28;19929;-43
2023/06/26 02:32:08;;;;;;;;;;;22.40;80.90;;;;;;5014929;28;19955;-44
2023/06/26 02:34:35;;;;;;;;;;;22.40;81.60;;;;;;5010221;28;19925;-44
2023/06/26 02:37:03;;;;;;;;;;;22.40;80.80;;;;;;5030396;28;20355;-44
2023/06/26 02:39:29;;;;;;;;;;;22.40;82.10;;;;;;5015715;28;20365;-43
2023/06/26 02:41:56;;;;;;;;;;;22.30;83.30;;;;;;5037953;28;19925;-44
2023/06/26 02:44:23;;;;;;;;;;;22.30;82.30;;;;;;5009723;28;19925;-44
2023/06/26 02:46:49;;;;;;;;;;;22.30;81.20;;;;;;5047681;28;20361;-44
2023/06/26 02:49:16;;;;;;;;;;;22.30;82.60;;;;;;5031573;28;19925;-42
2023/06/26 02:51:43;;;;;;;;;;;22.20;81.70;;;;;;5014869;28;19972;-44
2023/06/26 02:54:11;;;;;;;;;;;22.20;81.40;;;;;;5015092;28;19929;-44
2023/06/26 02:56:37;;;;;;;;;;;22.20;82.20;;;;;;5013890;28;19925;-44
2023/06/26 02:59:04;;;;;;;;;;;22.20;82.10;;;;;;5031867;28;20305;-45
2023/06/26 03:01:31;;;;;;;;;;;22.20;82.20;;;;;;5013601;28;19932;-45
2023/06/26 03:04:00;;;;;;;;;;;22.10;84.50;;;;;;5032050;28;20296;-44
2023/06/26 03:06:27;;;;;;;;;;;22.10;83.40;;;;;;5038932;28;19932;-43
2023/06/26 03:08:53;;;;;;;;;;;22.10;82.40;;;;;;5010922;28;19929;-43
2023/06/26 03:11:21;;;;;;;;;;;22.10;83.50;;;;;;5023762;28;19971;-43
2023/06/26 03:13:48;;;;;;;;;;;22.10;83.10;;;;;;5013916;28;20335;-44
2023/06/26 03:16:15;;;;;;;;;;;22.00;82.50;;;;;;5002548;28;19929;-44
2023/06/26 03:18:41;;;;;;;;;;;22.00;83.50;;;;;;5013911;28;19971;-43
2023/06/26 03:21:09;;;;;;;;;;;22.00;83.40;;;;;;5026981;28;20332;-44
2023/06/26 03:23:35;;;;;;;;;;;22.00;83.00;;;;;;5030734;28;19925;-45
2023/06/26 03:26:02;;;;;;;;;;;22.00;83.60;;;;;;5023168;28;19933;-44
2023/06/26 03:28:31;;;;;;;;;;;22.00;83.30;;;;;;5012520;28;20362;-44
2023/06/26 03:30:57;;;;;;;;;;;21.90;83.30;;;;;;5042583;28;19975;-43
2023/06/26 03:33:24;;;;;;;;;;;21.90;83.30;;;;;;5042200;28;19932;-45
2023/06/26 03:35:51;;;;;;;;;;;21.90;83.60;;;;;;5013558;28;19948;-44
2023/06/26 03:38:17;;;;;;;;;;;21.90;84.00;;;;;;5029613;28;19933;-42
2023/06/26 03:40:44;;;;;;;;;;;21.80;84.00;;;;;;5028276;28;20309;-43
2023/06/26 03:43:11;;;;;;;;;;;21.80;83.90;;;;;;5026302;28;19929;-44
2023/06/26 03:45:39;;;;;;;;;;;21.90;83.50;;;;;;5026586;28;19924;-45
2023/06/26 03:48:07;;;;;;;;;;;21.90;83.80;;;;;;5030843;28;19972;-43
2023/06/26 03:50:34;;;;;;;;;;;21.80;84.10;;;;;;5030921;28;19931;-44
2023/06/26 03:53:01;;;;;;;;;;;21.80;83.70;;;;;;5012935;28;19925;-44
2023/06/26 03:55:27;;;;;;;;;;;21.80;84.70;;;;;;5043164;28;19933;-44
2023/06/26 03:57:54;;;;;;;;;;;21.90;84.60;;;;;;5009539;28;19933;-44
2023/06/26 04:00:21;;;;;;;;;;;21.80;84.00;;;;;;5009423;28;20356;-43
2023/06/26 04:02:51;;;;;;;;;;;21.90;84.30;;;;;;5003088;28;20365;-45
2023/06/26 04:05:17;;;;;;;;;;;21.90;85.10;;;;;;5031260;28;19936;-44
2023/06/26 04:07:44;;;;;;;;;;;21.90;85.60;;;;;;5024090;28;19936;-44
2023/06/26 04:10:11;;;;;;;;;;;21.90;85.50;;;;;;5017641;28;19941;-43
2023/06/26 04:12:37;;;;;;;;;;;21.90;86.50;;;;;;5027554;28;19925;-45
2023/06/26 04:15:04;;;;;;;;;;;21.90;85.70;;;;;;5019308;28;20006;-45
2023/06/26 04:17:31;;;;;;;;;;;21.90;88.00;;;;;;5025223;28;19925;-43
2023/06/26 04:19:59;;;;;;;;;;;22.00;87.20;;;;;;5009731;28;19970;-45
2023/06/26 04:22:26;;;;;;;;;;;22.00;87.10;;;;;;5025601;28;19933;-44
2023/06/26 04:24:53;;;;;;;;;;;22.00;86.20;;;;;;5012401;28;20012;-45
2023/06/26 04:27:19;;;;;;;;;;;22.00;86.30;;;;;;5013351;28;19925;-44
2023/06/26 04:29:46;;;;;;;;;;;22.00;87.70;;;;;;5046005;28;19925;-44
2023/06/26 04:32:13;;;;;;;;;;;22.00;88.30;;;;;;5030912;28;19925;-45
2023/06/26 04:34:41;;;;;;;;;;;22.00;90.70;;;;;;5022810;28;20322;-44
2023/06/26 04:37:10;;;;;;;;;;;22.00;90.10;;;;;;5025537;28;19925;-44
2023/06/26 04:39:38;;;;;;;;;;;22.00;91.00;;;;;;5013364;28;19932;-44
2023/06/26 04:42:05;;;;;;;;;;;22.00;90.60;;;;;;5030725;28;19932;-45
2023/06/26 04:44:31;;;;;;;;;;;22.10;90.50;;;;;;5031229;28;19979;-43
2023/06/26 04:46:58;;;;;;;;;;;22.10;90.90;;;;;;5012151;28;19929;-42
2023/06/26 04:49:27;;;;;;;;;;;22.20;91.00;;;;;;5013171;28;20385;-44
2023/06/26 04:51:54;;;;;;;;;;;22.20;91.20;;;;;;5046242;28;20048;-44
2023/06/26 04:54:22;;;;;;;;;;;22.20;91.90;;;;;;5012324;28;19925;-44
2023/06/26 04:56:49;;;;;;;;;;;22.20;93.20;;;;;;5015098;28;19980;-44
2023/06/26 04:59:15;;;;;;;;;;;22.20;93.90;;;;;;5015237;28;19929;-44
2023/06/26 05:01:44;;;;;;;;;;;22.20;93.10;;;;;;5026396;28;19929;-43
2023/06/26 05:04:10;;;;;;;;;;;22.10;95.00;;;;;;5031738;28;19980;-43
2023/06/26 05:06:37;;;;;;;;;;;22.20;95.10;;;;;;5031268;28;19932;-45
2023/06/26 05:09:03;;;;;;;;;;;22.10;96.30;;;;;;5027504;28;19925;-44
2023/06/26 05:11:32;;;;;;;;;;;22.10;96.20;;;;;;5016826;28;20388;-44
2023/06/26 05:13:58;;;;;;;;;;;22.10;95.50;;;;;;5033477;28;20408;-44
2023/06/26 05:16:25;;;;;;;;;;;22.10;96.50;;;;;;5030147;28;20339;-44
2023/06/26 05:18:52;;;;;;;;;;;22.00;96.40;;;;;;5033134;28;19932;-44
2023/06/26 05:21:19;;;;;;;;;;;22.00;96.20;;;;;;5032001;28;19929;-45
2023/06/26 05:23:45;;;;;;;;;;;22.00;97.50;;;;;;5033304;28;20365;-43
2023/06/26 05:26:13;;;;;;;;;;;22.00;96.80;;;;;;5015837;28;19933;-44
2023/06/26 05:28:41;;;;;;;;;;;22.00;97.50;;;;;;5015914;28;19972;-44
2023/06/26 05:31:08;;;;;;;;;;;21.90;98.00;;;;;;5034159;28;19925;-43
2023/06/26 05:33:35;;;;;;;;;;;21.90;98.30;;;;;;5032376;28;19936;-43
2023/06/26 05:36:02;;;;;;;;;;;21.90;98.30;;;;;;5030997;28;19925;-42
2023/06/26 05:38:29;;;;;;;;;;;21.80;98.40;;;;;;5021011;28;20020;-44
2023/06/26 05:40:56;;;;;;;;;;;21.80;98.70;;;;;;5015780;28;20348;-44
2023/06/26 05:43:23;;;;;;;;;;;21.70;99.60;;;;;;5029424;28;20320;-43
2023/06/26 05:45:51;;;;;;;;;;;21.70;99.50;;;;;;5012242;28;20021;-43
2023/06/26 05:48:18;;;;;;;;;;;21.60;99.90;;;;;;5032644;28;19937;-44
2023/06/26 05:50:45;;;;;;;;;;;21.60;99.90;;;;;;5032670;28;20617;-44
2023/06/26 05:53:12;;;;;;;;;;;21.60;99.90;;;;;;5015404;28;19932;-44
2023/06/26 05:55:41;;;;;;;;;;;21.60;99.90;;;;;;5033325;28;19971;-44
2023/06/26 05:58:07;;;;;;;;;;;21.70;99.90;;;;;;5032498;28;20421;-45
2023/06/26 06:00:34;;;;;;;;;;;21.70;99.90;;;;;;5032327;28;19932;-44
2023/06/26 06:03:02;;;;;;;;;;;21.70;99.90;;;;;;5008358;28;19929;-45
2023/06/26 06:05:29;;;;;;;;;;;21.80;99.90;;;;;;5031123;28;19925;-44
2023/06/26 06:07:56;;;;;;;;;;;21.80;99.90;;;;;;5032572;28;20395;-43
2023/06/26 06:10:22;;;;;;;;;;;21.80;99.90;;;;;;5030916;28;19972;-44
2023/06/26 06:12:49;;;;;;;;;;;21.80;99.80;;;;;;5033573;28;19948;-45
2023/06/26 06:15:16;;;;;;;;;;;21.80;99.10;;;;;;5015355;28;19937;-44
2023/06/26 06:17:42;;;;;;;;;;;21.90;98.90;;;;;;5011990;28;19971;-44
2023/06/26 06:20:11;;;;;;;;;;;21.80;98.50;;;;;;5032654;28;20331;-44
2023/06/26 06:22:38;;;;;;;;;;;21.80;99.20;;;;;;5031371;28;20351;-45
2023/06/26 06:25:05;;;;;;;;;;;21.90;99.10;;;;;;5007449;28;19971;-45
2023/06/26 06:27:31;;;;;;;;;;;22.00;98.20;;;;;;5046728;28;20046;-44
2023/06/26 06:29:58;;;;;;;;;;;22.00;97.40;;;;;;5014500;28;19925;-45
2023/06/26 06:32:25;;;;;;;;;;;22.10;97.00;;;;;;5047703;28;19937;-44
2023/06/26 06:34:51;;;;;;;;;;;22.20;96.80;;;;;;5018719;28;19940;-45
2023/06/26 06:37:20;;;;;;;;;;;22.30;96.20;;;;;;5033381;28;19933;-43
2023/06/26 06:39:46;;;;;;;;;;;22.40;95.80;;;;;;5031673;28;19929;-44
2023/06/26 06:42:13;;;;;;;;;;;22.50;94.70;;;;;;5014395;28;19971;-45
2023/06/26 06:44:40;;;;;;;;;;;22.50;94.30;;;;;;5014499;28;19925;-45
2023/06/26 06:47:06;;;;;;;;;;;22.60;94.30;;;;;;5047760;28;19975;-44
2023/06/26 06:49:33;;;;;;;;;;;22.70;94.30;;;;;;5031871;28;19986;-45
2023/06/26 06:52:00;;;;;;;;;;;22.80;94.00;;;;;;5032054;28;19929;-45
2023/06/26 06:54:28;;;;;;;;;;;22.80;93.60;;;;;;5031096;28;19925;-43
2023/06/26 06:56:55;;;;;;;;;;;22.70;93.10;;;;;;5032608;28;19933;-42
2023/06/26 06:59:21;;;;;;;;;;;22.70;93.00;;;;;;5026611;28;19929;-45
2023/06/26 07:01:48;;;;;;;;;;;22.70;92.70;;;;;;5047986;28;19928;-44
2023/06/26 07:04:15;;;;;;;;;;;22.70;92.80;;;;;;5046932;28;20000;-43
2023/06/26 07:06:41;;;;;;;;;;;22.80;92.60;;;;;;5031188;28;19960;-43
2023/06/26 07:09:08;;;;;;;;;;;22.80;92.90;;;;;;5006312;28;19933;-44
2023/06/26 07:11:36;;;;;;;;;;;23.00;93.10;;;;;;5030587;28;19933;-44
2023/06/26 07:14:03;;;;;;;;;;;23.10;93.00;;;;;;5005769;28;19929;-45
2023/06/26 07:16:29;;;;;;;;;;;23.30;92.80;;;;;;5029208;28;20347;-42
2023/06/26 07:18:57;;;;;;;;;;;23.40;92.90;;;;;;5023892;28;19980;-44
2023/06/26 07:21:23;;;;;;;;;;;23.50;92.70;;;;;;5003765;28;19937;-44
2023/06/26 07:23:50;;;;;;;;;;;23.70;92.90;;;;;;5041425;28;19929;-44
2023/06/26 07:26:17;;;;;;;;;;;23.90;92.80;;;;;;5013329;28;20337;-42
2023/06/26 07:28:45;;;;;;;;;;;24.10;92.30;;;;;;5018768;28;20438;-43
2023/06/26 07:31:12;;;;;;;;;;;24.20;91.50;;;;;;5029599;28;20377;-45
2023/06/26 07:33:38;;;;;;;;;;;24.40;91.70;;;;;;5010325;28;19929;-44
2023/06/26 07:36:05;;;;;;;;;;;24.50;90.90;;;;;;5031479;28;19932;-42
2023/06/26 07:38:34;;;;;;;;;;;24.60;91.00;;;;;;5012728;28;20699;-43
2023/06/26 07:41:00;;;;;;;;;;;24.70;90.50;;;;;;5012106;28;19925;-44
2023/06/26 07:43:27;;;;;;;;;;;24.80;90.20;;;;;;5027543;28;20333;-44
2023/06/26 07:45:58;;;;;;;;;;;24.90;89.90;;;;;;5020407;28;19925;-42
2023/06/26 07:48:25;;;;;;;;;;;25.00;87.70;;;;;;5013227;28;19947;-44
2023/06/26 07:50:51;;;;;;;;;;;25.00;87.00;;;;;;5022097;28;19961;-45
2023/06/26 07:53:18;;;;;;;;;;;25.10;87.50;;;;;;5012192;28;19929;-43
2023/06/26 07:55:45;;;;;;;;;;;25.20;87.90;;;;;;5030147;28;19929;-44
2023/06/26 07:58:11;;;;;;;;;;;25.30;87.00;;;;;;5012663;28;19925;-44
2023/06/26 08:00:38;;;;;;;;;;;25.40;85.40;;;;;;5013268;28;19968;-44
2023/06/26 08:03:06;;;;;;;;;;;25.40;85.60;;;;;;5014307;28;19994;-43
2023/06/26 08:05:33;;;;;;;;;;;25.40;84.90;;;;;;5031497;28;20328;-44
2023/06/26 08:08:01;;;;;;;;;;;25.40;84.30;;;;;;5031366;28;19925;-45
2023/06/26 08:10:28;;;;;;;;;;;25.40;83.70;;;;;;5029841;28;19925;-44
2023/06/26 08:12:55;;;;;;;;;;;25.50;84.40;;;;;;5013343;28;19940;-45
2023/06/26 08:15:22;;;;;;;;;;;25.50;83.40;;;;;;5031349;28;19936;-44
2023/06/26 08:17:50;;;;;;;;;;;25.50;83.30;;;;;;5031746;28;19925;-44
2023/06/26 08:20:19;;;;;;;;;;;25.40;84.20;;;;;;5031766;28;19925;-44
2023/06/26 08:22:47;;;;;;;;;;;25.40;84.30;;;;;;5031620;28;19933;-44
2023/06/26 08:25:14;;;;;;;;;;;25.40;85.00;;;;;;5021593;28;19973;-45
2023/06/26 08:27:41;;;;;;;;;;;25.40;83.50;;;;;;5011351;28;19925;-44
2023/06/26 08:30:08;;;;;;;;;;;25.50;83.60;;;;;;5034089;28;19924;-43
2023/06/26 08:32:34;;;;;;;;;;;25.50;84.70;;;;;;5035361;28;19925;-45
2023/06/26 08:35:01;;;;;;;;;;;25.50;83.60;;;;;;5035257;28;19932;-45
2023/06/26 08:37:31;;;;;;;;;;;25.50;83.20;;;;;;5035500;28;20308;-45
2023/06/26 08:39:57;;;;;;;;;;;25.40;83.70;;;;;;5035396;28;19928;-45
2023/06/26 08:42:24;;;;;;;;;;;25.30;84.70;;;;;;5050524;28;19929;-44
2023/06/26 08:44:51;;;;;;;;;;;25.40;84.50;;;;;;5034665;28;19925;-44
2023/06/26 08:47:18;;;;;;;;;;;25.40;84.10;;;;;;5035060;28;19925;-44
2023/06/26 08:49:47;;;;;;;;;;;25.40;83.90;;;;;;5035196;28;19979;-45
2023/06/26 08:52:14;;;;;;;;;;;25.20;83.60;;;;;;5035073;28;19932;-44
2023/06/26 08:54:44;;;;;;;;;;;25.20;84.50;;;;;;5035079;28;19968;-45
2023/06/26 08:57:10;;;;;;;;;;;25.20;84.60;;;;;;5017560;28;20012;-45
2023/06/26 08:59:37;;;;;;;;;;;25.40;84.60;;;;;;5034335;28;19932;-44
2023/06/26 09:02:04;;;;;;;;;;;25.50;84.00;;;;;;5017569;28;19925;-45
2023/06/26 09:04:31;;;;;;;;;;;25.60;83.40;;;;;;5034920;28;20308;-45
2023/06/26 09:06:58;;;;;;;;;;;25.60;82.40;;;;;;5034887;28;19925;-45
2023/06/26 09:09:24;;;;;;;;;;;25.60;83.60;;;;;;5017159;28;19925;-45
2023/06/26 09:11:52;;;;;;;;;;;25.60;83.50;;;;;;5017483;28;19929;-45
2023/06/26 09:14:19;;;;;;;;;;;25.50;83.70;;;;;;5034903;28;19932;-42
2023/06/26 09:16:46;;;;;;;;;;;25.70;84.50;;;;;;5016607;28;19940;-44
2023/06/26 09:19:13;;;;;;;;;;;25.80;82.80;;;;;;5034819;28;20383;-45
2023/06/26 09:21:40;;;;;;;;;;;25.90;83.10;;;;;;5034368;28;19932;-45
2023/06/26 09:24:07;;;;;;;;;;;26.00;81.50;;;;;;5034613;28;19980;-45
2023/06/26 09:26:33;;;;;;;;;;;26.10;82.00;;;;;;5016647;28;19971;-44
2023/06/26 09:29:01;;;;;;;;;;;26.10;82.30;;;;;;5016904;28;19929;-45
2023/06/26 09:31:28;;;;;;;;;;;26.10;82.10;;;;;;5034141;28;20309;-44
2023/06/26 09:33:56;;;;;;;;;;;26.10;81.20;;;;;;5015771;28;20380;-43
2023/06/26 09:36:24;;;;;;;;;;;26.10;80.60;;;;;;5034462;28;19929;-44
2023/06/26 09:38:51;;;;;;;;;;;26.10;80.10;;;;;;5034012;28;19929;-45
2023/06/26 09:41:18;;;;;;;;;;;26.10;80.00;;;;;;5033286;28;20392;-44
2023/06/26 09:43:48;;;;;;;;;;;26.20;81.20;;;;;;5034218;28;20270;-44
2023/06/26 09:46:18;;;;;;;;;;;26.40;77.50;;;;;;5034127;28;19931;-45
2023/06/26 09:48:45;;;;;;;;;;;26.30;77.40;;;;;;5033403;28;20375;-44
2023/06/26 09:51:11;;;;;;;;;;;26.10;76.40;;;;;;5033959;28;19932;-45
2023/06/26 09:53:38;;;;;;;;;;;26.00;77.40;;;;;;5016197;28;19925;-45
2023/06/26 09:56:08;;;;;;;;;;;26.10;78.40;;;;;;5033870;28;19925;-44
2023/06/26 09:58:35;;;;;;;;;;;26.30;78.40;;;;;;5014840;28;20380;-44
2023/06/26 10:01:02;;;;;;;;;;;26.30;76.90;;;;;;5034193;28;19971;-44
2023/06/26 10:03:30;;;;;;;;;;;26.30;77.50;;;;;;5016367;28;19929;-44
2023/06/26 10:05:56;;;;;;;;;;;26.50;77.50;;;;;;5016064;28;20003;-44
2023/06/26 10:08:23;;;;;;;;;;;26.50;75.30;;;;;;5016058;28;19929;-45
2023/06/26 10:10:50;;;;;;;;;;;26.50;74.40;;;;;;5015591;28;19929;-44
2023/06/26 10:13:17;;;;;;;;;;;26.50;75.40;;;;;;5015693;28;19979;-45
2023/06/26 10:15:44;;;;;;;;;;;26.60;76.80;;;;;;5033700;28;19929;-44
2023/06/26 10:18:11;;;;;;;;;;;26.80;74.40;;;;;;5033590;28;19931;-44
2023/06/26 10:20:39;;;;;;;;;;;27.00;74.60;;;;;;5033287;28;19925;-45
2023/06/26 10:23:05;;;;;;;;;;;27.00;73.10;;;;;;5033132;28;19976;-44
2023/06/26 10:25:32;;;;;;;;;;;26.90;73.20;;;;;;5003071;28;20381;-45
2023/06/26 10:27:59;;;;;;;;;;;26.60;73.30;;;;;;5013372;28;19929;-44
2023/06/26 10:30:27;;;;;;;;;;;26.20;73.40;;;;;;5020285;28;20365;-45
2023/06/26 10:32:54;;;;;;;;;;;25.90;75.00;;;;;;5015161;28;20331;-43
2023/06/26 10:35:21;;;;;;;;;;;25.80;74.30;;;;;;5015037;28;19932;-45
2023/06/26 10:37:50;;;;;;;;;;;25.80;76.30;;;;;;5015456;28;20296;-44
2023/06/26 10:40:22;;;;;;;;;;;26.00;77.20;;;;;;5032920;28;19925;-44
2023/06/26 10:42:50;;;;;;;;;;;26.30;76.80;;;;;;5032488;28;20392;-45
2023/06/26 10:45:18;;;;;;;;;;;26.60;76.60;;;;;;5015580;28;20349;-43
2023/06/26 10:47:46;;;;;;;;;;;26.80;75.00;;;;;;5032261;28;20359;-43
2023/06/26 10:50:19;;;;;;;;;;;26.90;75.50;;;;;;5032615;28;19932;-44
2023/06/26 10:52:46;;;;;;;;;;;27.00;74.30;;;;;;5031759;28;20389;-45
2023/06/26 10:55:18;;;;;;;;;;;27.10;74.80;;;;;;5032725;28;19925;-45
2023/06/26 10:57:45;;;;;;;;;;;27.10;72.20;;;;;;5032777;28;19932;-44
2023/06/26 11:00:13;;;;;;;;;;;27.10;72.90;;;;;;5032666;28;19940;-44
2023/06/26 11:02:50;;;;;;;;;;;27.00;70.00;;;;;;5031616;28;19948;-43
2023/06/26 11:05:24;;;;;;;;;;;26.60;70.90;;;;;;5032369;28;19985;-44
2023/06/26 11:08:03;;;;;;;;;;;26.20;71.30;;;;;;5032247;28;19925;-45
2023/06/26 11:10:31;;;;;;;;;;;26.10;71.90;;;;;;5014418;28;20335;-43
2023/06/26 11:12:58;;;;;;;;;;;26.10;72.20;;;;;;5013931;28;20005;-44
2023/06/26 11:15:27;;;;;;;;;;;26.20;71.70;;;;;;5032588;28;20379;-44
2023/06/26 11:17:54;;;;;;;;;;;26.40;72.80;;;;;;5031611;28;19929;-43
2023/06/26 11:20:21;;;;;;;;;;;26.70;73.40;;;;;;5031862;28;20022;-43
2023/06/26 11:22:47;;;;;;;;;;;27.00;72.80;;;;;;5032134;28;20009;-44
2023/06/26 11:25:14;;;;;;;;;;;27.20;71.60;;;;;;5006002;28;20012;-44
2023/06/26 11:27:42;;;;;;;;;;;27.40;70.70;;;;;;4998060;28;19964;-45
2023/06/26 11:30:09;;;;;;;;;;;27.30;70.30;;;;;;5012397;28;19980;-45
2023/06/26 11:32:36;;;;;;;;;;;27.30;70.00;;;;;;5002403;28;20020;-45
2023/06/26 11:35:04;;;;;;;;;;;27.30;70.70;;;;;;5032327;28;19925;-45
2023/06/26 11:37:31;;;;;;;;;;;27.40;70.30;;;;;;5032535;28;20262;-44
2023/06/26 11:39:58;;;;;;;;;;;27.40;71.40;;;;;;5031746;28;20385;-45
2023/06/26 11:42:25;;;;;;;;;;;27.40;70.00;;;;;;5013561;28;20349;-45
2023/06/26 11:44:53;;;;;;;;;;;27.20;69.60;;;;;;5029506;28;19931;-45
2023/06/26 11:47:20;;;;;;;;;;;27.20;70.40;;;;;;5030639;28;19925;-44
2023/06/26 11:49:47;;;;;;;;;;;27.30;72.00;;;;;;5032045;28;20292;-44
2023/06/26 11:52:14;;;;;;;;;;;27.60;71.60;;;;;;5047415;28;19933;-45
2023/06/26 11:54:41;;;;;;;;;;;27.60;68.80;;;;;;5047657;28;19925;-45
2023/06/26 11:57:08;;;;;;;;;;;27.20;68.30;;;;;;5030410;28;19925;-44
2023/06/26 11:59:35;;;;;;;;;;;26.90;68.00;;;;;;5013973;28;20402;-45
2023/06/26 12:02:05;;;;;;;;;;;26.70;69.70;;;;;;5013463;28;20357;-44
2023/06/26 12:04:31;;;;;;;;;;;26.30;69.10;;;;;;5016135;28;20354;-45
2023/06/26 12:06:58;;;;;;;;;;;26.20;70.50;;;;;;5015855;28;19936;-43
2023/06/26 12:09:25;;;;;;;;;;;26.10;70.90;;;;;;5033609;28;20399;-46
2023/06/26 12:11:52;;;;;;;;;;;26.10;71.80;;;;;;5035478;28;19925;-45
2023/06/26 12:14:20;;;;;;;;;;;26.20;71.50;;;;;;5035759;28;19925;-45
2023/06/26 12:16:47;;;;;;;;;;;26.20;71.20;;;;;;5017888;28;19925;-46
2023/06/26 12:19:15;;;;;;;;;;;26.10;71.70;;;;;;5035732;28;19925;-44
2023/06/26 12:21:45;;;;;;;;;;;26.00;71.30;;;;;;5035358;28;19925;-42
2023/06/26 12:24:13;;;;;;;;;;;26.00;71.50;;;;;;5034006;28;19925;-45
2023/06/26 12:26:43;;;;;;;;;;;26.10;71.40;;;;;;5015666;28;19976;-44
2023/06/26 12:29:11;;;;;;;;;;;26.20;71.40;;;;;;5017828;28;20373;-46
2023/06/26 12:31:40;;;;;;;;;;;26.50;71.10;;;;;;5035342;28;19969;-43
2023/06/26 12:34:09;;;;;;;;;;;26.50;69.70;;;;;;5035039;28;19951;-45
2023/06/26 12:36:42;;;;;;;;;;;26.50;69.40;;;;;;5032923;28;19936;-45
2023/06/26 12:39:10;;;;;;;;;;;26.40;68.30;;;;;;5033557;28;19968;-43
2023/06/26 12:41:37;;;;;;;;;;;26.30;69.50;;;;;;5026259;28;19929;-44
2023/06/26 12:44:04;;;;;;;;;;;26.20;69.90;;;;;;5013274;28;19983;-45
2023/06/26 12:46:34;;;;;;;;;;;26.20;70.30;;;;;;5015593;28;19929;-43
2023/06/26 12:49:02;;;;;;;;;;;26.20;69.70;;;;;;5016066;28;19932;-44
2023/06/26 12:51:28;;;;;;;;;;;26.20;69.80;;;;;;5016834;28;19925;-44
2023/06/26 12:53:56;;;;;;;;;;;26.30;68.60;;;;;;5034814;28;20343;-44
2023/06/26 12:56:23;;;;;;;;;;;26.20;68.00;;;;;;5016831;28;20377;-45
2023/06/26 12:58:50;;;;;;;;;;;26.20;66.80;;;;;;5034362;28;19948;-45
2023/06/26 13:01:16;;;;;;;;;;;26.20;67.70;;;;;;5017043;28;19972;-46
2023/06/26 13:03:43;;;;;;;;;;;26.20;67.40;;;;;;5034672;28;19925;-45
2023/06/26 13:06:10;;;;;;;;;;;26.10;67.90;;;;;;5033427;28;20283;-45
2023/06/26 13:08:37;;;;;;;;;;;26.10;67.40;;;;;;4999818;28;20008;-44
2023/06/26 13:11:05;;;;;;;;;;;26.20;68.20;;;;;;4997124;28;19976;-45
2023/06/26 13:13:32;;;;;;;;;;;26.20;68.20;;;;;;5014509;28;20341;-44
2023/06/26 13:15:59;;;;;;;;;;;26.30;66.50;;;;;;5013738;28;19976;-44
2023/06/26 13:18:25;;;;;;;;;;;26.30;66.60;;;;;;4997067;28;19925;-44
2023/06/26 13:20:52;;;;;;;;;;;26.40;68.00;;;;;;5014824;28;19925;-44
2023/06/26 13:23:19;;;;;;;;;;;26.60;68.90;;;;;;5009779;28;20296;-45
2023/06/26 13:25:45;;;;;;;;;;;26.80;68.00;;;;;;5002523;28;19932;-45
2023/06/26 13:28:13;;;;;;;;;;;26.90;67.00;;;;;;5013991;28;20043;-45
2023/06/26 13:30:40;;;;;;;;;;;26.90;67.40;;;;;;4997224;28;19926;-44
2023/06/26 13:33:07;;;;;;;;;;;27.00;68.00;;;;;;4996609;28;19997;-45
2023/06/26 13:35:33;;;;;;;;;;;27.00;67.60;;;;;;5023619;28;20557;-44
2023/06/26 13:38:00;;;;;;;;;;;27.00;67.50;;;;;;5049286;28;19929;-44
2023/06/26 13:40:27;;;;;;;;;;;27.00;67.90;;;;;;5033702;28;20028;-45
2023/06/26 13:42:53;;;;;;;;;;;27.00;67.80;;;;;;5015514;28;20339;-44
2023/06/26 13:45:21;;;;;;;;;;;27.00;67.50;;;;;;5014474;28;19932;-42
2023/06/26 13:47:48;;;;;;;;;;;27.00;67.90;;;;;;5032026;28;19968;-44
2023/06/26 13:50:15;;;;;;;;;;;27.00;67.20;;;;;;5031334;28;19937;-44
2023/06/26 13:52:42;;;;;;;;;;;27.00;66.80;;;;;;5033871;28;19925;-43
2023/06/26 13:55:09;;;;;;;;;;;26.70;66.70;;;;;;5048705;28;20332;-44
2023/06/26 13:57:41;;;;;;;;;;;26.70;67.40;;;;;;5031177;28;20249;-43
2023/06/26 14:00:08;;;;;;;;;;;26.60;66.80;;;;;;5031583;28;20415;-44
2023/06/26 14:02:36;;;;;;;;;;;26.50;67.80;;;;;;5031878;28;19933;-44
2023/06/26 14:05:03;;;;;;;;;;;26.60;68.30;;;;;;5033287;28;19929;-44
2023/06/26 14:07:31;;;;;;;;;;;26.60;68.10;;;;;;5033120;28;19925;-44
2023/06/26 14:09:57;;;;;;;;;;;26.70;67.00;;;;;;5012938;28;19925;-44
2023/06/26 14:12:25;;;;;;;;;;;26.60;67.70;;;;;;5032931;28;20349;-44
2023/06/26 14:14:51;;;;;;;;;;;26.60;68.50;;;;;;5014969;28;19925;-45
2023/06/26 14:17:18;;;;;;;;;;;26.70;69.00;;;;;;5033076;28;19925;-42